Ute, Iowa
Current Conditions -  °F | °C
As of 5:55 PM on Sunday 21 Dec 2014 (Local Time) from KDNS Reporting Station
Haze Haze  
Wind Chill: -1°   Ceiling: 500
Heat Index:   Visibility: 4mi
Dew Point:   Wind: 16mph
Humidity: 100%   Direction: 180°S
Pressure: 29.68"   Gusts: 23mph
Location:  42.05°N, 95.71°W
Report Text: KDNS 212355Z AUTO 18014G20KT 4SM BR OVC005 04/04 A2968 RMK AO2
Loading
Personal Weather Stations






























Interactive Weather Map New forecast layout! Learn more

10-Day Weather Forecast

Advertisements
Track Severe Weather on mobile